Time;durP1;ratioP1;P1;durP2;ratioP2;P2;SDS_P1;SDS_P2;PMS_P1;PMS_P2;Temp;Humidity;BMP_temperature;BMP_pressure;BME280_temperature;BME280_humidity;BME280_pressure;Samples;Min_cycle;Max_cycle;Signal;HPM_P1;HPM_P2
2022/05/16 00:00:10;;;;;;;3.40;1.10;;;16.30;99.90;;;;;;5091433;28;20387;-83
2022/05/16 00:02:38;;;;;;;2.30;1.13;;;16.50;99.90;;;;;;5092699;28;20419;-83
2022/05/16 00:05:05;;;;;;;2.40;1.10;;;16.70;99.90;;;;;;5092057;28;20384;-84
2022/05/16 00:07:32;;;;;;;1.67;1.00;;;16.80;99.90;;;;;;5092105;28;20379;-83
2022/05/16 00:10:00;;;;;;;2.65;1.10;;;16.90;99.90;;;;;;5091958;28;20917;-83
2022/05/16 00:12:27;;;;;;;2.67;1.20;;;17.00;99.90;;;;;;5092567;28;20451;-83
2022/05/16 00:14:54;;;;;;;1.95;1.00;;;17.10;99.90;;;;;;5092426;28;20376;-83
2022/05/16 00:17:21;;;;;;;2.38;1.23;;;17.20;99.90;;;;;;5092282;28;20723;-83
2022/05/16 00:19:48;;;;;;;2.78;1.17;;;17.30;99.90;;;;;;5090883;28;20390;-83
2022/05/16 00:22:15;;;;;;;4.75;0.95;;;17.50;99.90;;;;;;5092507;28;20377;-83
2022/05/16 00:24:44;;;;;;;2.53;1.00;;;17.60;99.90;;;;;;5091900;28;20433;-84
2022/05/16 00:27:12;;;;;;;1.92;1.00;;;17.70;99.90;;;;;;5091995;28;20376;-84
2022/05/16 00:29:39;;;;;;;1.05;0.80;;;17.90;99.90;;;;;;5091632;28;20747;-83
2022/05/16 00:32:07;;;;;;;2.10;0.82;;;18.10;99.90;;;;;;5091719;28;20369;-84
2022/05/16 00:34:34;;;;;;;2.75;0.98;;;18.10;99.90;;;;;;5091555;28;20448;-83
2022/05/16 00:37:02;;;;;;;1.25;0.90;;;18.10;99.90;;;;;;5091471;28;20429;-83
2022/05/16 00:39:29;;;;;;;3.47;0.90;;;18.10;99.90;;;;;;5092320;28;20376;-83
2022/05/16 00:41:56;;;;;;;2.95;0.90;;;18.20;99.90;;;;;;5092185;28;20940;-84
2022/05/16 00:44:24;;;;;;;1.70;0.80;;;18.30;99.90;;;;;;5091840;28;20364;-84
2022/05/16 00:46:51;;;;;;;2.05;0.90;;;18.50;99.90;;;;;;5092449;28;20433;-83
2022/05/16 00:49:28;;;;;;;0.70;0.65;;;18.50;99.90;;;;;;5091837;28;20466;-83
2022/05/16 00:52:09;;;;;;;1.10;0.70;;;18.60;99.90;;;;;;5092075;28;20383;-84
2022/05/16 00:54:39;;;;;;;2.00;0.60;;;18.80;99.90;;;;;;5093582;28;20368;-84
2022/05/16 00:57:14;;;;;;;1.48;0.60;;;18.80;99.90;;;;;;5092489;28;20866;-83
2022/05/16 00:59:55;;;;;;;1.20;0.60;;;19.00;99.90;;;;;;5092786;28;20781;-82
2022/05/16 01:05:09;;;;;;;0.60;0.50;;;18.90;99.90;;;;;;5092119;28;20359;-82
2022/05/16 01:07:41;;;;;;;1.77;0.60;;;19.10;99.90;;;;;;5097100;28;20391;-83
2022/05/16 01:10:11;;;;;;;1.92;0.50;;;19.40;99.90;;;;;;5100916;28;20376;-82
2022/05/16 01:12:42;;;;;;;2.35;0.70;;;19.30;99.90;;;;;;5092759;28;20513;-85
2022/05/16 01:15:28;;;;;;;0.93;0.60;;;19.40;99.90;;;;;;5090900;28;20418;-83
2022/05/16 01:17:55;;;;;;;2.20;0.70;;;19.40;99.90;;;;;;5091434;28;20372;-83
2022/05/16 01:20:22;;;;;;;2.38;0.60;;;19.70;99.90;;;;;;5090604;28;20399;-83
2022/05/16 01:22:54;;;;;;;1.33;0.60;;;19.90;99.90;;;;;;5090700;28;20744;-83
2022/05/16 01:25:28;;;;;;;1.98;0.70;;;20.00;99.90;;;;;;5090731;28;20450;-84
2022/05/16 01:27:57;;;;;;;2.53;0.90;;;20.00;99.90;;;;;;5090700;28;20564;-83
2022/05/16 01:30:34;;;;;;;3.47;1.10;;;20.20;99.90;;;;;;5090320;28;20473;-83
2022/05/16 01:33:01;;;;;;;1.33;0.70;;;20.20;99.90;;;;;;5090705;28;20360;-83
2022/05/16 01:35:30;;;;;;;0.60;0.60;;;20.10;99.90;;;;;;5090542;28;20475;-83
2022/05/16 01:40:43;;;;;;;1.75;0.70;;;20.20;99.90;;;;;;5091860;28;20791;-84
2022/05/16 01:43:12;;;;;;;0.70;0.60;;;20.20;99.90;;;;;;5092252;28;20452;-83
2022/05/16 01:45:41;;;;;;;0.75;0.60;;;20.40;99.90;;;;;;5090322;28;20365;-83
2022/05/16 01:48:10;;;;;;;1.30;0.60;;;20.50;99.90;;;;;;5090202;28;20377;-83
2022/05/16 01:50:37;;;;;;;0.70;0.63;;;20.60;99.90;;;;;;5090313;28;20451;-82
2022/05/16 01:53:04;;;;;;;1.85;0.60;;;20.70;99.90;;;;;;5090325;28;20383;-82
2022/05/16 01:55:31;;;;;;;0.80;0.50;;;20.60;99.90;;;;;;5090126;28;20476;-82
2022/05/16 01:57:58;;;;;;;1.80;0.60;;;20.60;99.90;;;;;;5090380;28;20373;-83
2022/05/16 02:00:25;;;;;;;1.10;0.55;;;20.80;99.90;;;;;;5089830;28;20396;-83
2022/05/16 02:02:52;;;;;;;2.50;0.60;;;21.00;99.90;;;;;;5089823;28;20455;-83
2022/05/16 02:05:22;;;;;;;1.15;0.70;;;21.10;96.70;;;;;;5090673;28;20381;-83
2022/05/16 02:07:52;;;;;;;1.58;0.57;;;21.10;98.90;;;;;;5090381;28;20372;-83
2022/05/16 02:10:23;;;;;;;1.02;0.60;;;21.10;95.80;;;;;;5089880;28;20459;-83
2022/05/16 02:12:51;;;;;;;2.10;0.65;;;21.10;96.50;;;;;;5089951;28;20368;-83
2022/05/16 02:15:22;;;;;;;1.03;0.60;;;21.10;95.90;;;;;;5089689;28;20522;-83
2022/05/16 02:17:50;;;;;;;1.20;0.50;;;21.10;96.80;;;;;;5089549;28;20376;-83
2022/05/16 02:20:18;;;;;;;1.83;0.60;;;21.20;97.50;;;;;;5088429;28;20756;-82
2022/05/16 02:25:33;;;;;;;0.82;0.60;;;21.30;96.40;;;;;;5089566;28;20360;-83
2022/05/16 02:28:00;;;;;;;2.00;0.75;;;21.30;97.90;;;;;;5089923;28;20455;-83
2022/05/16 02:30:27;;;;;;;3.30;0.90;;;21.50;96.20;;;;;;5089430;28;20463;-82
2022/05/16 02:32:55;;;;;;;5.30;0.70;;;21.40;96.10;;;;;;5089892;28;20968;-83
2022/05/16 02:35:23;;;;;;;1.70;0.60;;;21.30;96.90;;;;;;5090238;28;20417;-83
2022/05/16 02:37:51;;;;;;;0.60;0.60;;;21.20;95.50;;;;;;5087802;28;20879;-83
2022/05/16 02:40:18;;;;;;;2.10;0.60;;;21.20;97.10;;;;;;5089529;28;20467;-83
2022/05/16 02:42:45;;;;;;;1.60;0.70;;;21.30;98.20;;;;;;5089417;28;20380;-83
2022/05/16 02:45:12;;;;;;;1.05;0.70;;;21.50;98.50;;;;;;5089734;28;20369;-83
2022/05/16 02:47:39;;;;;;;1.05;0.70;;;21.60;95.50;;;;;;5089119;28;20389;-84
2022/05/16 02:50:06;;;;;;;0.85;0.57;;;21.70;96.60;;;;;;5091520;28;20379;-81
2022/05/16 02:52:33;;;;;;;1.05;0.60;;;22.00;96.30;;;;;;5089687;28;20383;-83
2022/05/16 02:55:00;;;;;;;1.15;0.60;;;22.00;96.70;;;;;;5092412;28;20417;-81
2022/05/16 02:57:29;;;;;;;1.60;0.60;;;22.00;97.20;;;;;;5093454;28;20381;-83
2022/05/16 02:59:57;;;;;;;1.20;0.70;;;22.00;95.90;;;;;;5092610;28;20479;-81
2022/05/16 03:02:24;;;;;;;1.08;0.70;;;22.00;97.90;;;;;;5089187;28;20407;-84
2022/05/16 03:04:52;;;;;;;1.08;0.70;;;22.10;97.60;;;;;;5089262;28;20382;-85
2022/05/16 03:07:19;;;;;;;0.98;0.80;;;22.10;95.90;;;;;;5089195;28;20428;-84
2022/05/16 03:09:49;;;;;;;2.20;0.70;;;22.00;97.20;;;;;;5089150;28;20495;-83
2022/05/16 03:12:16;;;;;;;1.27;0.60;;;22.20;97.80;;;;;;5089127;28;20385;-84
2022/05/16 03:14:43;;;;;;;1.37;0.60;;;22.40;96.80;;;;;;5089108;28;20710;-85
2022/05/16 03:17:11;;;;;;;1.98;0.70;;;22.50;95.80;;;;;;5089501;28;20371;-82
2022/05/16 03:19:38;;;;;;;0.90;0.68;;;22.50;94.60;;;;;;5090265;28;20395;-83
2022/05/16 03:22:06;;;;;;;0.60;0.60;;;22.60;95.70;;;;;;5091594;28;20801;-82
2022/05/16 03:24:33;;;;;;;1.25;0.60;;;22.60;95.70;;;;;;5091139;28;20356;-83
2022/05/16 03:27:01;;;;;;;1.13;0.60;;;22.70;96.00;;;;;;5091477;28;20374;-83
2022/05/16 03:29:28;;;;;;;0.65;0.60;;;22.70;95.40;;;;;;5091539;28;20368;-83
2022/05/16 03:31:56;;;;;;;1.70;0.60;;;22.90;93.50;;;;;;5091916;28;20786;-85
2022/05/16 03:34:23;;;;;;;1.40;0.50;;;23.00;95.40;;;;;;5097065;28;20368;-84
2022/05/16 03:36:50;;;;;;;0.90;0.55;;;23.10;93.70;;;;;;5096608;28;20392;-85
2022/05/16 03:42:02;;;;;;;0.52;0.47;;;23.30;92.30;;;;;;5097044;28;20375;-85
2022/05/16 03:44:29;;;;;;;0.50;0.50;;;23.60;91.00;;;;;;5095685;28;20386;-84
2022/05/16 03:46:56;;;;;;;0.93;0.50;;;23.80;91.30;;;;;;5094923;28;20501;-84
2022/05/16 03:49:24;;;;;;;1.30;0.50;;;23.70;86.10;;;;;;5091688;28;20483;-85
2022/05/16 03:51:51;;;;;;;1.42;0.57;;;23.50;87.20;;;;;;5092781;28;20381;-86
2022/05/16 03:54:19;;;;;;;1.63;0.43;;;23.20;90.90;;;;;;5092544;28;20383;-85
2022/05/16 03:56:46;;;;;;;1.00;0.50;;;23.10;90.40;;;;;;5092418;28;20406;-83
2022/05/16 03:59:13;;;;;;;0.70;0.40;;;23.00;90.40;;;;;;5093247;28;20694;-83
2022/05/16 04:01:40;;;;;;;1.25;0.60;;;23.00;91.70;;;;;;5092407;28;20429;-85
2022/05/16 04:04:07;;;;;;;2.60;0.60;;;23.00;91.70;;;;;;5092376;28;20449;-84
2022/05/16 04:06:36;;;;;;;0.98;0.60;;;23.00;92.30;;;;;;5092280;28;20372;-84
2022/05/16 04:09:04;;;;;;;1.40;0.50;;;23.00;92.00;;;;;;5092212;28;20423;-85
2022/05/16 04:11:31;;;;;;;0.60;0.55;;;23.10;91.40;;;;;;5092235;28;20476;-85
2022/05/16 04:13:58;;;;;;;0.80;0.52;;;23.20;90.80;;;;;;5092105;28;20364;-86
2022/05/16 04:16:25;;;;;;;1.37;0.50;;;23.30;87.00;;;;;;5092372;28;20449;-85
2022/05/16 04:18:52;;;;;;;0.60;0.60;;;23.30;87.50;;;;;;5092598;28;20375;-84
2022/05/16 04:21:19;;;;;;;0.73;0.50;;;23.10;87.50;;;;;;5092138;28;20404;-84
2022/05/16 04:23:46;;;;;;;0.82;0.52;;;22.90;90.00;;;;;;5092173;28;20379;-85
2022/05/16 04:26:13;;;;;;;0.55;0.50;;;22.80;90.70;;;;;;5091857;28;20865;-84
2022/05/16 04:28:40;;;;;;;2.22;0.60;;;22.90;92.00;;;;;;5091740;28;20383;-84
2022/05/16 04:31:08;;;;;;;1.60;0.50;;;23.10;91.80;;;;;;5091645;28;20392;-84
2022/05/16 04:33:35;;;;;;;1.90;0.60;;;23.10;91.00;;;;;;5091587;28;20392;-84
2022/05/16 04:36:02;;;;;;;1.30;0.50;;;23.00;88.70;;;;;;5091581;28;20401;-84
2022/05/16 04:38:29;;;;;;;2.15;0.60;;;22.90;91.50;;;;;;5091903;28;20755;-84
2022/05/16 04:43:41;;;;;;;1.85;0.50;;;24.10;91.90;;;;;;5091689;28;20413;-85
2022/05/16 04:46:09;;;;;;;1.80;0.70;;;23.00;91.30;;;;;;5091053;28;20373;-87
2022/05/16 04:48:36;;;;;;;2.28;0.55;;;23.20;90.80;;;;;;5091457;28;20844;-84
2022/05/16 04:51:04;;;;;;;0.65;0.55;;;24.00;90.40;;;;;;5091198;28;20383;-84
2022/05/16 04:53:31;;;;;;;1.90;0.52;;;24.80;85.20;;;;;;5091414;28;20387;-84
2022/05/16 04:55:59;;;;;;;1.40;0.50;;;25.50;81.10;;;;;;5091082;28;20373;-84
2022/05/16 04:58:26;;;;;;;3.08;0.55;;;25.40;77.40;;;;;;5091022;28;20374;-85
2022/05/16 05:00:53;;;;;;;1.80;0.60;;;25.60;76.10;;;;;;5091079;28;20404;-84
2022/05/16 05:03:20;;;;;;;1.00;0.50;;;25.30;75.80;;;;;;5091156;28;20489;-85
2022/05/16 05:05:47;;;;;;;0.95;0.50;;;24.70;78.70;;;;;;5091388;28;20413;-85
2022/05/16 05:08:14;;;;;;;0.80;0.50;;;24.30;82.70;;;;;;5092016;28;20860;-85
2022/05/16 05:16:16;;;;;;;1.15;0.70;;;24.60;81.50;;;;;;5091680;28;20855;-85
2022/05/16 05:18:44;;;;;;;0.95;0.60;;;24.20;83.90;;;;;;5091232;28;20878;-84
2022/05/16 05:21:12;;;;;;;1.23;0.60;;;24.00;83.70;;;;;;5092658;28;20400;-85
2022/05/16 05:23:40;;;;;;;1.27;0.52;;;23.70;85.20;;;;;;5090686;28;20372;-86
2022/05/16 05:26:09;;;;;;;0.75;0.60;;;23.70;86.10;;;;;;5091225;28;20376;-85
2022/05/16 05:28:37;;;;;;;4.72;1.10;;;23.60;86.90;;;;;;5090687;28;20491;-84
2022/05/16 05:31:09;;;;;;;4.00;0.70;;;23.60;88.50;;;;;;5090639;28;20744;-85
2022/05/16 05:33:36;;;;;;;4.05;0.70;;;23.50;87.50;;;;;;5091143;28;20404;-85
2022/05/16 05:36:04;;;;;;;1.75;0.70;;;23.50;88.10;;;;;;5090675;28;20371;-85
2022/05/16 05:38:31;;;;;;;2.75;0.55;;;23.20;88.50;;;;;;5090583;28;20433;-86
2022/05/16 05:40:58;;;;;;;1.08;0.80;;;23.00;90.30;;;;;;5090855;28;20415;-85
2022/05/16 05:43:25;;;;;;;1.55;0.55;;;22.80;91.10;;;;;;5090355;28;20393;-84
2022/05/16 05:45:53;;;;;;;1.85;0.73;;;22.70;92.10;;;;;;5090233;28;20426;-85
2022/05/16 05:48:20;;;;;;;2.45;0.90;;;22.50;92.30;;;;;;5089971;28;20377;-85
2022/05/16 05:50:47;;;;;;;2.60;0.75;;;22.40;92.70;;;;;;5090111;28;20493;-85
2022/05/16 05:53:14;;;;;;;3.83;1.00;;;22.30;92.20;;;;;;5089996;28;20372;-85
2022/05/16 05:55:41;;;;;;;2.77;0.73;;;22.10;93.40;;;;;;5089768;28;20373;-85
2022/05/16 05:58:08;;;;;;;1.70;0.60;;;21.90;94.10;;;;;;5090091;28;20725;-85
2022/05/16 06:00:35;;;;;;;2.90;0.70;;;21.80;94.60;;;;;;5090298;28;20390;-85
2022/05/16 06:03:03;;;;;;;0.82;0.60;;;21.80;95.00;;;;;;5090158;28;20380;-84
2022/05/16 06:05:30;;;;;;;2.13;0.70;;;21.80;95.40;;;;;;5090172;28;20372;-86
2022/05/16 06:07:57;;;;;;;3.00;0.60;;;21.70;95.70;;;;;;5090264;28;20408;-85
2022/05/16 06:10:24;;;;;;;1.38;0.60;;;21.60;96.20;;;;;;5090029;28;20531;-85
2022/05/16 06:12:53;;;;;;;1.58;0.65;;;21.50;96.70;;;;;;5089727;28;20455;-84
2022/05/16 06:15:21;;;;;;;2.53;0.60;;;21.40;95.80;;;;;;5089533;28;20372;-85
2022/05/16 06:17:50;;;;;;;0.60;0.50;;;21.50;95.50;;;;;;5089628;28;20368;-83
2022/05/16 06:20:17;;;;;;;0.88;0.60;;;21.40;96.50;;;;;;5089560;28;20395;-85
2022/05/16 06:22:44;;;;;;;0.90;0.60;;;21.30;97.50;;;;;;5089675;28;20368;-84
2022/05/16 06:25:39;;;;;;;2.70;0.63;;;21.20;97.40;;;;;;5089691;28;20381;-85
2022/05/16 06:28:08;;;;;;;0.77;0.60;;;21.00;97.60;;;;;;5089439;28;20368;-83
2022/05/16 06:30:38;;;;;;;2.28;0.70;;;20.90;98.90;;;;;;5089671;28;20393;-85
2022/05/16 06:33:05;;;;;;;1.58;0.70;;;20.90;99.50;;;;;;5089623;28;20437;-84
2022/05/16 06:35:34;;;;;;;2.15;0.98;;;20.90;99.90;;;;;;5089539;28;20371;-83
2022/05/16 06:38:06;;;;;;;2.13;0.93;;;20.90;99.30;;;;;;5089549;28;20764;-83
2022/05/16 06:40:33;;;;;;;2.83;0.80;;;20.90;99.00;;;;;;5089244;28;20395;-81
2022/05/16 06:43:00;;;;;;;1.88;0.70;;;20.80;99.70;;;;;;5089334;28;20433;-84
2022/05/16 06:45:27;;;;;;;1.85;0.70;;;20.60;99.90;;;;;;5089175;28;20763;-82
2022/05/16 06:47:54;;;;;;;1.35;0.73;;;20.40;99.90;;;;;;5089514;28;20452;-81
2022/05/16 06:50:21;;;;;;;2.95;0.90;;;20.20;99.90;;;;;;5089491;28;20402;-83
2022/05/16 06:52:49;;;;;;;2.63;1.50;;;20.00;99.90;;;;;;5089230;28;20385;-84
2022/05/16 06:55:16;;;;;;;2.75;1.20;;;19.90;99.90;;;;;;5089692;28;20375;-88
2022/05/16 06:57:55;;;;;;;1.92;1.00;;;19.80;99.90;;;;;;5089806;28;20432;-83
2022/05/16 07:00:24;;;;;;;2.43;1.03;;;19.70;99.90;;;;;;5089016;28;20456;-85
2022/05/16 07:02:51;;;;;;;2.70;1.02;;;19.60;99.90;;;;;;5089043;28;20402;-86
2022/05/16 07:05:18;;;;;;;2.22;1.20;;;19.50;99.90;;;;;;5089031;28;20397;-88
2022/05/16 07:07:45;;;;;;;4.35;1.13;;;19.40;99.90;;;;;;5087607;28;20513;-84
2022/05/16 07:10:12;;;;;;;2.85;1.30;;;19.30;99.90;;;;;;5089020;28;20783;-83
2022/05/16 07:12:39;;;;;;;2.40;1.20;;;19.10;99.90;;;;;;5089091;28;20372;-84
2022/05/16 07:15:07;;;;;;;2.20;1.13;;;18.90;99.90;;;;;;5089125;28;20392;-86
2022/05/16 07:17:34;;;;;;;4.27;1.03;;;18.80;99.90;;;;;;5088904;28;20368;-84
2022/05/16 07:20:01;;;;;;;3.67;1.40;;;18.70;99.90;;;;;;5088638;28;20937;-86
2022/05/16 07:22:28;;;;;;;6.07;1.40;;;18.60;99.90;;;;;;5088816;28;20395;-82
2022/05/16 07:24:59;;;;;;;3.90;1.50;;;18.50;99.90;;;;;;5089496;28;20373;-85
2022/05/16 07:30:12;;;;;;;6.47;2.70;;;18.20;99.90;;;;;;5088870;28;20379;-85
2022/05/16 07:32:42;;;;;;;5.75;2.28;;;18.10;99.90;;;;;;5088819;28;20912;-85
2022/05/16 07:35:13;;;;;;;4.32;1.90;;;18.00;99.90;;;;;;5090125;28;20739;-85
2022/05/16 07:37:41;;;;;;;8.48;2.38;;;17.90;99.90;;;;;;5088621;28;20382;-86
2022/05/16 07:40:10;;;;;;;6.03;2.10;;;17.90;99.90;;;;;;5089223;28;20472;-85
2022/05/16 07:42:37;;;;;;;5.47;1.80;;;17.90;99.90;;;;;;5089074;28;20390;-86
2022/05/16 07:45:06;;;;;;;5.00;1.85;;;17.90;99.90;;;;;;5089143;28;20383;-85
2022/05/16 07:47:34;;;;;;;3.75;1.80;;;17.90;99.90;;;;;;5088769;28;20384;-84
2022/05/16 07:50:07;;;;;;;6.00;2.50;;;18.10;99.90;;;;;;5088455;28;20875;-85
2022/05/16 07:52:34;;;;;;;5.97;2.53;;;18.30;99.90;;;;;;5088924;28;20373;-88
2022/05/16 07:55:05;;;;;;;6.07;2.47;;;18.30;99.90;;;;;;5091207;28;20392;-88
2022/05/16 07:57:32;;;;;;;4.95;2.15;;;18.40;99.90;;;;;;5091483;28;20407;-83
2022/05/16 07:59:59;;;;;;;6.22;2.00;;;18.50;99.90;;;;;;5088096;28;20399;-84
2022/05/16 08:02:26;;;;;;;5.95;1.48;;;18.60;99.90;;;;;;5089004;28;20376;-84
2022/05/16 08:04:53;;;;;;;17.52;7.25;;;18.60;99.90;;;;;;5090411;28;20387;-86
2022/05/16 08:07:20;;;;;;;10.02;5.53;;;18.50;99.90;;;;;;5088290;28;20457;-83
2022/05/16 08:12:36;;;;;;;18.17;15.40;;;18.30;99.90;;;;;;5089027;28;20509;-83
2022/05/16 08:15:05;;;;;;;11.65;6.60;;;18.20;99.90;;;;;;5089551;28;20379;-83
2022/05/16 08:17:32;;;;;;;5.68;2.08;;;18.20;99.90;;;;;;5088111;28;20360;-82
2022/05/16 08:20:00;;;;;;;5.45;2.30;;;18.00;99.90;;;;;;5089879;28;20445;-83
2022/05/16 08:22:32;;;;;;;4.95;1.80;;;18.00;99.90;;;;;;5091904;28;20381;-83
2022/05/16 08:24:59;;;;;;;3.88;1.42;;;17.90;99.90;;;;;;5092149;28;20721;-83
2022/05/16 08:27:27;;;;;;;7.38;1.88;;;17.70;99.90;;;;;;5091924;28;20736;-82
2022/05/16 08:29:54;;;;;;;4.37;1.80;;;17.60;99.90;;;;;;5091960;28;20479;-83
2022/05/16 08:32:23;;;;;;;7.13;1.90;;;17.40;99.90;;;;;;5092541;28;20376;-82
2022/05/16 08:34:57;;;;;;;7.38;2.90;;;17.30;99.90;;;;;;5091642;28;20364;-82
2022/05/16 08:40:10;;;;;;;9.87;2.90;;;17.20;99.90;;;;;;5091924;28;20458;-82
2022/05/16 08:43:06;;;;;;;10.52;3.30;;;17.10;99.90;;;;;;5091535;28;20455;-82
2022/05/16 08:45:37;;;;;;;13.65;3.83;;;17.10;99.90;;;;;;5091776;28;20460;-82
2022/05/16 08:48:28;;;;;;;10.23;3.70;;;17.00;99.90;;;;;;5092070;28;20371;-84
2022/05/16 08:51:04;;;;;;;12.25;4.20;;;16.80;99.90;;;;;;5092106;28;20368;-85
2022/05/16 08:53:50;;;;;;;12.85;4.03;;;16.80;99.90;;;;;;5095347;28;20372;-83
2022/05/16 08:56:22;;;;;;;10.57;3.63;;;16.70;99.90;;;;;;5092199;28;20369;-83
2022/05/16 08:59:00;;;;;;;12.05;3.40;;;16.60;99.90;;;;;;5092065;28;20937;-82
2022/05/16 09:01:38;;;;;;;9.82;3.63;;;16.50;99.90;;;;;;5096244;28;20404;-84
2022/05/16 09:04:30;;;;;;;8.75;3.25;;;16.50;99.90;;;;;;5103625;28;20365;-82
2022/05/16 09:06:57;;;;;;;12.13;2.53;;;16.40;99.90;;;;;;5095845;28;20770;-85
2022/05/16 09:09:34;;;;;;;7.25;1.90;;;16.40;99.90;;;;;;5102564;28;20448;-85
2022/05/16 09:12:17;;;;;;;3.67;1.70;;;16.40;99.90;;;;;;5101827;28;20364;-81
2022/05/16 09:15:05;;;;;;;3.72;1.58;;;16.60;99.90;;;;;;5098028;28;20379;-84
2022/05/16 09:17:45;;;;;;;2.88;1.30;;;16.50;99.90;;;;;;5094015;28;20871;-83
2022/05/16 09:20:23;;;;;;;3.63;1.10;;;16.40;99.90;;;;;;5093792;28;20391;-82
2022/05/16 09:23:11;;;;;;;3.60;1.02;;;16.60;99.90;;;;;;5090758;28;20407;-81
2022/05/16 09:26:15;;;;;;;3.22;0.90;;;16.80;99.90;;;;;;5093318;28;20364;-81
2022/05/16 09:28:47;;;;;;;2.27;0.90;;;16.90;99.90;;;;;;5090747;28;20923;-82
2022/05/16 09:31:44;;;;;;;5.53;1.20;;;17.20;99.80;;;;;;5089055;28;20875;-85
2022/05/16 09:34:14;;;;;;;3.70;0.80;;;17.40;99.20;;;;;;5089652;28;20455;-79
2022/05/16 09:36:45;;;;;;;3.63;0.93;;;17.30;99.20;;;;;;5089562;28;20371;-80
2022/05/16 09:39:17;;;;;;;4.72;1.20;;;17.30;99.40;;;;;;5092092;28;20368;-82
2022/05/16 09:41:44;;;;;;;3.78;1.08;;;17.20;99.90;;;;;;5090482;28;20468;-81
2022/05/16 09:44:39;;;;;;;6.32;1.50;;;17.00;99.90;;;;;;5090844;28;20725;-86
2022/05/16 09:47:30;;;;;;;3.30;1.30;;;16.90;99.90;;;;;;5090907;28;20372;-85
2022/05/16 09:50:03;;;;;;;5.78;1.20;;;16.90;99.90;;;;;;5090561;28;20369;-84
2022/05/16 09:52:36;;;;;;;4.33;1.00;;;16.90;99.90;;;;;;5090727;28;20384;-84
2022/05/16 09:55:11;;;;;;;3.97;1.03;;;16.90;99.90;;;;;;5091469;28;20384;-83
2022/05/16 09:57:49;;;;;;;2.72;1.10;;;16.90;99.30;;;;;;5091110;28;20372;-85
2022/05/16 10:00:23;;;;;;;5.35;1.10;;;16.90;99.00;;;;;;5091503;28;20388;-87
2022/05/16 10:03:20;;;;;;;5.03;0.90;;;16.90;98.80;;;;;;5093080;28;20447;-85
2022/05/16 10:05:51;;;;;;;3.23;0.90;;;16.80;98.80;;;;;;5048151;28;20459;-87
2022/05/16 10:08:38;;;;;;;2.78;0.93;;;16.70;99.00;;;;;;5048698;28;20713;-84
2022/05/16 10:11:15;;;;;;;3.45;1.05;;;16.60;99.50;;;;;;5048327;28;20583;-83
2022/05/16 10:13:43;;;;;;;4.00;1.10;;;16.40;99.90;;;;;;5048279;28;20375;-83
2022/05/16 10:16:12;;;;;;;3.83;1.13;;;16.20;99.90;;;;;;5050691;28;20458;-83
2022/05/16 10:18:55;;;;;;;3.42;1.00;;;16.00;99.90;;;;;;5048755;28;20376;-84
2022/05/16 10:21:36;;;;;;;3.08;0.90;;;15.90;99.90;;;;;;5050896;28;20415;-83
2022/05/16 10:24:10;;;;;;;3.40;1.00;;;15.70;99.90;;;;;;5009934;28;20375;-87
2022/05/16 10:26:42;;;;;;;3.83;1.00;;;15.60;99.90;;;;;;5008549;28;20382;-86
2022/05/16 10:29:14;;;;;;;3.67;1.00;;;15.60;99.90;;;;;;5009329;28;20535;-85
2022/05/16 10:35:18;;;;;;;4.68;1.20;;;15.80;99.90;;;;;;5008453;28;20442;-85
2022/05/16 10:37:47;;;;;;;3.08;1.10;;;15.80;99.90;;;;;;4949682;29;20383;-86
2022/05/16 10:40:29;;;;;;;3.75;1.10;;;15.80;99.90;;;;;;4949640;28;20503;-86
2022/05/16 10:43:20;;;;;;;4.65;1.00;;;15.80;99.90;;;;;;4970146;28;20381;-86
2022/05/16 10:45:55;;;;;;;5.37;1.40;;;15.80;99.90;;;;;;4988063;28;20373;-85
2022/05/16 10:48:34;;;;;;;3.60;1.10;;;15.80;99.90;;;;;;4988637;28;20377;-85
2022/05/16 10:54:12;;;;;;;3.27;1.00;;;15.90;99.90;;;;;;4988297;28;20368;-85
2022/05/16 10:57:20;;;;;;;3.70;1.10;;;16.00;99.90;;;;;;4988373;28;20481;-82
2022/05/16 11:00:06;;;;;;;3.55;1.20;;;15.90;99.90;;;;;;4950756;28;20391;-85
2022/05/16 11:02:39;;;;;;;2.97;1.00;;;15.80;99.90;;;;;;4969965;28;20404;-84
2022/05/16 11:05:15;;;;;;;4.95;1.20;;;15.70;99.90;;;;;;4970513;28;20465;-83
2022/05/16 11:08:10;;;;;;;3.78;1.00;;;15.60;99.90;;;;;;4970014;28;20455;-85
2022/05/16 11:10:49;;;;;;;5.25;1.00;;;15.50;99.90;;;;;;4968941;28;20383;-86
2022/05/16 11:14:12;;;;;;;5.47;0.93;;;15.60;99.90;;;;;;4982486;28;20377;-85
2022/05/16 11:16:40;;;;;;;4.13;1.20;;;15.60;99.90;;;;;;4950508;29;20888;-85
2022/05/16 11:19:34;;;;;;;4.25;1.10;;;15.50;99.90;;;;;;4949697;29;20384;-86
2022/05/16 11:22:13;;;;;;;2.88;0.88;;;15.40;99.90;;;;;;4950095;29;21032;-86
2022/05/16 11:24:56;;;;;;;4.13;1.10;;;15.30;99.90;;;;;;4949786;29;20392;-87
2022/05/16 11:27:50;;;;;;;4.10;1.37;;;15.30;99.90;;;;;;4950227;29;20376;-86
2022/05/16 11:30:35;;;;;;;3.05;1.20;;;15.30;99.90;;;;;;4950011;29;20400;-81
2022/05/16 11:33:14;;;;;;;3.65;1.20;;;15.30;99.90;;;;;;4949986;29;20388;-86
2022/05/16 11:35:49;;;;;;;2.72;1.20;;;15.10;99.90;;;;;;4979713;28;20384;-85
2022/05/16 11:38:40;;;;;;;4.40;1.27;;;14.90;99.90;;;;;;5027390;28;20471;-86
2022/05/16 11:41:11;;;;;;;3.80;1.30;;;14.80;99.90;;;;;;5027489;28;20401;-87
2022/05/16 11:43:46;;;;;;;3.88;1.30;;;14.60;99.90;;;;;;5027622;28;20369;-83
2022/05/16 11:46:20;;;;;;;2.90;1.13;;;14.60;99.90;;;;;;5035842;28;20698;-83
2022/05/16 11:49:17;;;;;;;3.45;1.30;;;14.50;99.90;;;;;;5089262;28;20448;-85
2022/05/16 11:52:12;;;;;;;3.00;1.20;;;14.30;99.90;;;;;;5088704;28;20384;-84
2022/05/16 11:54:44;;;;;;;3.22;1.30;;;14.30;99.90;;;;;;5089826;28;20364;-85
2022/05/16 12:03:17;;;;;;;4.07;1.38;;;14.10;99.90;;;;;;5093027;28;20372;-85
2022/05/16 12:05:51;;;;;;;4.15;1.30;;;14.00;99.90;;;;;;5092879;28;20875;-84
2022/05/16 12:08:50;;;;;;;4.90;1.30;;;14.00;99.90;;;;;;5092874;28;20376;-82
2022/05/16 12:11:28;;;;;;;3.83;1.33;;;13.90;99.90;;;;;;5088387;28;20380;-86
2022/05/16 12:14:27;;;;;;;3.05;1.10;;;13.80;99.90;;;;;;5092479;28;20379;-85
2022/05/16 12:17:19;;;;;;;2.30;1.10;;;13.80;99.90;;;;;;5050136;28;20421;-85
2022/05/16 12:19:52;;;;;;;5.15;1.30;;;13.70;99.90;;;;;;5050173;28;20485;-87
2022/05/16 12:22:42;;;;;;;5.25;1.30;;;13.70;99.90;;;;;;5050379;28;20461;-85
2022/05/16 12:25:13;;;;;;;1.88;1.05;;;13.70;99.90;;;;;;5049718;28;20399;-85
2022/05/16 12:27:45;;;;;;;3.50;1.30;;;13.70;99.90;;;;;;5049936;28;20383;-83
2022/05/16 12:30:38;;;;;;;2.67;1.30;;;13.70;99.90;;;;;;5033496;28;20495;-85
2022/05/16 12:33:32;;;;;;;5.10;1.50;;;13.60;99.90;;;;;;5050253;28;20433;-83
2022/05/16 12:35:59;;;;;;;3.10;1.20;;;13.60;99.90;;;;;;5010108;28;20387;-86
2022/05/16 12:38:29;;;;;;;3.42;1.33;;;13.50;99.90;;;;;;5010371;28;20379;-85
2022/05/16 12:41:44;;;;;;;4.15;1.58;;;13.50;99.90;;;;;;5010284;28;20398;-84
2022/05/16 12:44:44;;;;;;;4.78;1.33;;;13.50;99.90;;;;;;5010398;28;20760;-84
2022/05/16 12:47:34;;;;;;;3.42;1.25;;;13.50;99.90;;;;;;5009911;28;20371;-85
2022/05/16 12:50:24;;;;;;;5.15;1.30;;;13.40;99.90;;;;;;5009859;28;20849;-85
2022/05/16 12:53:30;;;;;;;3.17;1.30;;;13.40;99.90;;;;;;5017794;28;20372;-84
2022/05/16 12:56:10;;;;;;;3.75;1.50;;;13.40;99.90;;;;;;4989948;28;20893;-84
2022/05/16 12:58:58;;;;;;;2.08;1.13;;;13.40;99.90;;;;;;4989644;28;20926;-84
2022/05/16 13:01:43;;;;;;;3.95;1.40;;;13.30;99.90;;;;;;4989898;28;20420;-84
2022/05/16 13:04:30;;;;;;;4.28;1.40;;;13.30;99.90;;;;;;4989785;28;20395;-84
2022/05/16 13:07:08;;;;;;;6.95;1.50;;;13.30;99.90;;;;;;4972901;28;20384;-86
2022/05/16 13:09:39;;;;;;;4.13;1.10;;;13.30;99.90;;;;;;4989653;28;20384;-86
2022/05/16 13:12:27;;;;;;;4.25;1.25;;;13.20;99.90;;;;;;4989710;28;20464;-84
2022/05/16 13:15:04;;;;;;;2.88;1.17;;;13.20;99.90;;;;;;4989523;28;20385;-84
2022/05/16 13:17:35;;;;;;;3.35;1.20;;;13.20;99.90;;;;;;4989612;28;20439;-85
2022/05/16 13:20:12;;;;;;;3.63;1.25;;;13.20;99.90;;;;;;4989285;28;20919;-83
2022/05/16 13:22:43;;;;;;;2.67;1.27;;;13.10;99.90;;;;;;4989360;28;20872;-83
2022/05/16 13:25:12;;;;;;;3.72;1.35;;;13.10;99.90;;;;;;4989125;28;20376;-81
2022/05/16 13:30:27;;;;;;;2.63;1.33;;;13.00;99.90;;;;;;4988891;28;20428;-84
2022/05/16 13:32:54;;;;;;;3.75;1.30;;;13.00;99.90;;;;;;5034443;28;20376;-84
2022/05/16 13:35:30;;;;;;;3.90;1.40;;;12.90;99.90;;;;;;5090245;28;20382;-86
2022/05/16 13:37:58;;;;;;;4.28;1.50;;;13.50;99.90;;;;;;5090203;28;20701;-81
2022/05/16 13:40:43;;;;;;;2.78;1.20;;;12.90;99.90;;;;;;5090191;28;20459;-84
2022/05/16 13:43:21;;;;;;;4.95;1.40;;;12.90;99.90;;;;;;5089880;28;20364;-84
2022/05/16 13:45:48;;;;;;;5.38;1.60;;;12.90;99.90;;;;;;5090079;28;20372;-84
2022/05/16 13:48:17;;;;;;;3.33;1.55;;;12.90;99.90;;;;;;5090229;28;20736;-84
2022/05/16 13:50:48;;;;;;;5.67;1.53;;;12.80;99.90;;;;;;5090308;28;20377;-83
2022/05/16 13:53:22;;;;;;;2.85;1.30;;;12.80;99.90;;;;;;5090618;28;20352;-84
2022/05/16 13:55:51;;;;;;;2.75;1.30;;;12.80;99.90;;;;;;5090193;28;20376;-81